| State | Iowa | Latest | Unknown (404 cfs) | |
| River | North Skunk River | Rating | Observed | Estimated |
| Updated | 2026-05-10 6:30 (54 minutes ago) | Flood - The river is flooding. Obstacles can be treacherous or deadly. The river should be avoided at this stage for casual trips and definitely for the inexperienced. Trips should be attempted only with protective gear and equipment.Flood | (none) | (none) |
| Discharge | 404 cfs (median: 557 cfs) | High - The river is high and potentially dangerous, especially for the young and / or inexperienced. Normal stream obstacles are sometimes difficult to navigate. Extended distances can be attempted, but canoe travel may not be advisable.High | (none) | (none) |
| Height | 5.98 feet | Good - Conditions are ideal for a canoe or kayak. Boats typically will drag on fewer than one-quarter of riffles, if at all, and portages are unnecessary or rare. Normal float lengths can be attempted without a problem.Good | (none) | (none) |
| Trend | Steady (falling over 24 hours) | Low - River is low but can still be floated. Some riffles are okay but most come with significant dragging and might need a portage. Float lengths should be reduced to accommodate low flow, dragging, and portages.Low | (none) | (none) |
| USGS | USGS Site ( Duck Duck Go Maps) | Poor - River is too low to float comfortably. Most or all riffles will drag or must be portaged and some obstacles (such as slick shelf rock) cause undue problems. Avoid the river at this stage for casual paddling trips.Poor | (none) | (none) |
A total of 1 rows are displayed.
| Miles | 0 |
| Trips | 1 |
| People | 3 |
| Dates | 1 |
| Years | 1 |
| Months | 1 |
| Rows | 1 |
| Sources | 1 |
BLG - Bluegill
CCF - Channel Catfish
CP - Chain Pickerel
FWD - Freshwater Drum
GSF - Green Sunfish
KSB - Kentucky Spotted Bass
LMB - Largemouth Bass
LSF - Longear Sunfish
RB - Rock Bass / Goggle Eye
RSF - Redear Sunfish
RT - Rainbow Trout
SMB - Smallmouth Bass
WB - White Bass
WF - Whitefish
WL - WalleyeThe classic River Trips application is still available for use. It is updated with the new system using a data retrofit. It is no longer maintained. The original River Trips application is no longer updated (as of 1 Dec 2016) but can be checked for errors or for the condition of the data before it was converted to the new system.
| Observation | Height | Discharge | Maximum Discharge | Minimum Discharge | Mean Discharge | P05 | P10 | P20 | P25 | P50 (Median) | P75 | P80 | P90 | P95 |
|---|---|---|---|---|---|---|---|---|---|---|---|---|---|---|
| 2026-05-10 06:30 | 5.98 | 404 | 7880 (1996) | 19 (1956) | 896 | 54 | 88 | 210 | 236 | 557 | 955 | 1070 | 2040 | 3790 |
| 2026-05-10 05:30 | 5.98 | 404 | 7880 (1996) | 19 (1956) | 896 | 54 | 88 | 210 | 236 | 557 | 955 | 1070 | 2040 | 3790 |
| 2026-05-10 04:30 | 5.99 | 406 | 7880 (1996) | 19 (1956) | 896 | 54 | 88 | 210 | 236 | 557 | 955 | 1070 | 2040 | 3790 |
| 2026-05-10 03:30 | 6.01 | 410 | 7880 (1996) | 19 (1956) | 896 | 54 | 88 | 210 | 236 | 557 | 955 | 1070 | 2040 | 3790 |
| 2026-05-10 02:30 | 6.00 | 408 | 7880 (1996) | 19 (1956) | 896 | 54 | 88 | 210 | 236 | 557 | 955 | 1070 | 2040 | 3790 |
| 2026-05-10 01:30 | 6.02 | 412 | 7880 (1996) | 19 (1956) | 896 | 54 | 88 | 210 | 236 | 557 | 955 | 1070 | 2040 | 3790 |
| 2026-05-10 00:30 | 6.05 | 418 | 7880 (1996) | 19 (1956) | 896 | 54 | 88 | 210 | 236 | 557 | 955 | 1070 | 2040 | 3790 |
| 2026-05-09 23:30 | 6.06 | 420 | 7880 (1996) | 19 (1956) | 896 | 54 | 88 | 210 | 236 | 557 | 955 | 1070 | 2040 | 3790 |
| 2026-05-09 22:30 | 6.05 | 418 | 6220 (2007) | 8 (1957) | 876 | 56 | 95 | 200 | 232 | 544 | 943 | 1110 | 2300 | 3500 |
| 2026-05-09 21:30 | 6.06 | 420 | 6220 (2007) | 8 (1957) | 876 | 56 | 95 | 200 | 232 | 544 | 943 | 1110 | 2300 | 3500 |
| 2026-05-09 20:30 | 6.07 | 422 | 6220 (2007) | 8 (1957) | 876 | 56 | 95 | 200 | 232 | 544 | 943 | 1110 | 2300 | 3500 |
| 2026-05-09 19:30 | 6.07 | 422 | 6220 (2007) | 8 (1957) | 876 | 56 | 95 | 200 | 232 | 544 | 943 | 1110 | 2300 | 3500 |
| 2026-05-09 18:30 | 6.08 | 425 | 6220 (2007) | 8 (1957) | 876 | 56 | 95 | 200 | 232 | 544 | 943 | 1110 | 2300 | 3500 |
| 2026-05-09 17:30 | 6.07 | 422 | 6220 (2007) | 8 (1957) | 876 | 56 | 95 | 200 | 232 | 544 | 943 | 1110 | 2300 | 3500 |
| 2026-05-09 16:30 | 6.07 | 422 | 6220 (2007) | 8 (1957) | 876 | 56 | 95 | 200 | 232 | 544 | 943 | 1110 | 2300 | 3500 |
| 2026-05-09 15:30 | 6.09 | 427 | 6220 (2007) | 8 (1957) | 876 | 56 | 95 | 200 | 232 | 544 | 943 | 1110 | 2300 | 3500 |
| 2026-05-09 14:30 | 6.09 | 427 | 6220 (2007) | 8 (1957) | 876 | 56 | 95 | 200 | 232 | 544 | 943 | 1110 | 2300 | 3500 |
| 2026-05-09 13:30 | 6.10 | 429 | 6220 (2007) | 8 (1957) | 876 | 56 | 95 | 200 | 232 | 544 | 943 | 1110 | 2300 | 3500 |
| 2026-05-09 12:30 | 6.10 | 429 | 6220 (2007) | 8 (1957) | 876 | 56 | 95 | 200 | 232 | 544 | 943 | 1110 | 2300 | 3500 |
| 2026-05-09 11:30 | 6.11 | 431 | 6220 (2007) | 8 (1957) | 876 | 56 | 95 | 200 | 232 | 544 | 943 | 1110 | 2300 | 3500 |
| 2026-05-09 10:30 | 6.11 | 431 | 6220 (2007) | 8 (1957) | 876 | 56 | 95 | 200 | 232 | 544 | 943 | 1110 | 2300 | 3500 |
| 2026-05-09 09:30 | 6.09 | 427 | 6220 (2007) | 8 (1957) | 876 | 56 | 95 | 200 | 232 | 544 | 943 | 1110 | 2300 | 3500 |
| 2026-05-09 08:30 | 6.10 | 429 | 6220 (2007) | 8 (1957) | 876 | 56 | 95 | 200 | 232 | 544 | 943 | 1110 | 2300 | 3500 |
| 2026-05-09 07:30 | 6.10 | 429 | 6220 (2007) | 8 (1957) | 876 | 56 | 95 | 200 | 232 | 544 | 943 | 1110 | 2300 | 3500 |
| 2026-05-09 06:30 | 6.13 | 435 | 6220 (2007) | 8 (1957) | 876 | 56 | 95 | 200 | 232 | 544 | 943 | 1110 | 2300 | 3500 |
| 2026-05-09 05:30 | 6.09 | 427 | 6220 (2007) | 8 (1957) | 876 | 56 | 95 | 200 | 232 | 544 | 943 | 1110 | 2300 | 3500 |
| 2026-05-09 04:30 | 6.09 | 427 | 6220 (2007) | 8 (1957) | 876 | 56 | 95 | 200 | 232 | 544 | 943 | 1110 | 2300 | 3500 |
| 2026-05-09 03:30 | 6.09 | 427 | 6220 (2007) | 8 (1957) | 876 | 56 | 95 | 200 | 232 | 544 | 943 | 1110 | 2300 | 3500 |
| 2026-05-09 02:30 | 6.09 | 427 | 6220 (2007) | 8 (1957) | 876 | 56 | 95 | 200 | 232 | 544 | 943 | 1110 | 2300 | 3500 |
| 2026-05-09 01:30 | 6.11 | 431 | 6220 (2007) | 8 (1957) | 876 | 56 | 95 | 200 | 232 | 544 | 943 | 1110 | 2300 | 3500 |
| 2026-05-09 00:30 | 6.11 | 431 | 6220 (2007) | 8 (1957) | 876 | 56 | 95 | 200 | 232 | 544 | 943 | 1110 | 2300 | 3500 |
| 2026-05-08 23:30 | 6.12 | 433 | 6220 (2007) | 8 (1957) | 876 | 56 | 95 | 200 | 232 | 544 | 943 | 1110 | 2300 | 3500 |
| 2026-05-08 22:30 | 6.12 | 433 | 4900 (2007) | 7 (1957) | 857 | 59 | 104 | 195 | 225 | 475 | 951 | 1090 | 2510 | 3580 |
| 2026-05-08 21:30 | 6.11 | 431 | 4900 (2007) | 7 (1957) | 857 | 59 | 104 | 195 | 225 | 475 | 951 | 1090 | 2510 | 3580 |
| 2026-05-08 20:30 | 6.11 | 431 | 4900 (2007) | 7 (1957) | 857 | 59 | 104 | 195 | 225 | 475 | 951 | 1090 | 2510 | 3580 |
| 2026-05-08 19:30 | 6.11 | 431 | 4900 (2007) | 7 (1957) | 857 | 59 | 104 | 195 | 225 | 475 | 951 | 1090 | 2510 | 3580 |
| 2026-05-08 18:30 | 6.11 | 431 | 4900 (2007) | 7 (1957) | 857 | 59 | 104 | 195 | 225 | 475 | 951 | 1090 | 2510 | 3580 |
| 2026-05-08 17:30 | 6.12 | 433 | 4900 (2007) | 7 (1957) | 857 | 59 | 104 | 195 | 225 | 475 | 951 | 1090 | 2510 | 3580 |
| 2026-05-08 16:30 | 6.12 | 433 | 4900 (2007) | 7 (1957) | 857 | 59 | 104 | 195 | 225 | 475 | 951 | 1090 | 2510 | 3580 |
| 2026-05-08 15:30 | 6.12 | 433 | 4900 (2007) | 7 (1957) | 857 | 59 | 104 | 195 | 225 | 475 | 951 | 1090 | 2510 | 3580 |
| 2026-05-08 14:30 | 6.13 | 435 | 4900 (2007) | 7 (1957) | 857 | 59 | 104 | 195 | 225 | 475 | 951 | 1090 | 2510 | 3580 |
| 2026-05-08 13:30 | 6.14 | 437 | 4900 (2007) | 7 (1957) | 857 | 59 | 104 | 195 | 225 | 475 | 951 | 1090 | 2510 | 3580 |
| 2026-05-08 12:30 | 6.14 | 437 | 4900 (2007) | 7 (1957) | 857 | 59 | 104 | 195 | 225 | 475 | 951 | 1090 | 2510 | 3580 |
| 2026-05-08 11:30 | 6.15 | 439 | 4900 (2007) | 7 (1957) | 857 | 59 | 104 | 195 | 225 | 475 | 951 | 1090 | 2510 | 3580 |
| 2026-05-08 10:30 | 6.15 | 439 | 4900 (2007) | 7 (1957) | 857 | 59 | 104 | 195 | 225 | 475 | 951 | 1090 | 2510 | 3580 |
| 2026-05-08 09:30 | 6.14 | 437 | 4900 (2007) | 7 (1957) | 857 | 59 | 104 | 195 | 225 | 475 | 951 | 1090 | 2510 | 3580 |
| 2026-05-08 08:30 | 6.13 | 435 | 4900 (2007) | 7 (1957) | 857 | 59 | 104 | 195 | 225 | 475 | 951 | 1090 | 2510 | 3580 |
| 2026-05-08 07:30 | 6.13 | 435 | 4900 (2007) | 7 (1957) | 857 | 59 | 104 | 195 | 225 | 475 | 951 | 1090 | 2510 | 3580 |
| 2026-05-08 06:30 | 6.14 | 437 | 4900 (2007) | 7 (1957) | 857 | 59 | 104 | 195 | 225 | 475 | 951 | 1090 | 2510 | 3580 |
| 2026-05-08 05:30 | 6.14 | 437 | 4900 (2007) | 7 (1957) | 857 | 59 | 104 | 195 | 225 | 475 | 951 | 1090 | 2510 | 3580 |
| 2026-05-08 04:30 | 6.17 | 444 | 4900 (2007) | 7 (1957) | 857 | 59 | 104 | 195 | 225 | 475 | 951 | 1090 | 2510 | 3580 |
| 2026-05-08 03:30 | 6.18 | 446 | 4900 (2007) | 7 (1957) | 857 | 59 | 104 | 195 | 225 | 475 | 951 | 1090 | 2510 | 3580 |
| 2026-05-08 02:30 | 6.18 | 446 | 4900 (2007) | 7 (1957) | 857 | 59 | 104 | 195 | 225 | 475 | 951 | 1090 | 2510 | 3580 |
| 2026-05-08 01:30 | 6.19 | 448 | 4900 (2007) | 7 (1957) | 857 | 59 | 104 | 195 | 225 | 475 | 951 | 1090 | 2510 | 3580 |
| 2026-05-08 00:30 | 6.19 | 448 | 4900 (2007) | 7 (1957) | 857 | 59 | 104 | 195 | 225 | 475 | 951 | 1090 | 2510 | 3580 |
| 2026-05-07 23:30 | 6.19 | 448 | 4900 (2007) | 7 (1957) | 857 | 59 | 104 | 195 | 225 | 475 | 951 | 1090 | 2510 | 3580 |
| 2026-05-07 22:30 | 6.18 | 446 | 4420 (1960) | 8 (1957) | 789 | 65 | 113 | 174 | 212 | 482 | 886 | 1100 | 1970 | 3500 |
| 2026-05-07 21:30 | 6.18 | 446 | 4420 (1960) | 8 (1957) | 789 | 65 | 113 | 174 | 212 | 482 | 886 | 1100 | 1970 | 3500 |
| 2026-05-07 20:30 | 6.18 | 446 | 4420 (1960) | 8 (1957) | 789 | 65 | 113 | 174 | 212 | 482 | 886 | 1100 | 1970 | 3500 |
| 2026-05-07 19:30 | 6.19 | 448 | 4420 (1960) | 8 (1957) | 789 | 65 | 113 | 174 | 212 | 482 | 886 | 1100 | 1970 | 3500 |
| 2026-05-07 18:30 | 6.19 | 448 | 4420 (1960) | 8 (1957) | 789 | 65 | 113 | 174 | 212 | 482 | 886 | 1100 | 1970 | 3500 |
| 2026-05-07 17:30 | 6.19 | 448 | 4420 (1960) | 8 (1957) | 789 | 65 | 113 | 174 | 212 | 482 | 886 | 1100 | 1970 | 3500 |
| 2026-05-07 16:30 | 6.19 | 448 | 4420 (1960) | 8 (1957) | 789 | 65 | 113 | 174 | 212 | 482 | 886 | 1100 | 1970 | 3500 |
| 2026-05-07 15:30 | 6.21 | 452 | 4420 (1960) | 8 (1957) | 789 | 65 | 113 | 174 | 212 | 482 | 886 | 1100 | 1970 | 3500 |
| 2026-05-07 14:30 | 6.20 | 450 | 4420 (1960) | 8 (1957) | 789 | 65 | 113 | 174 | 212 | 482 | 886 | 1100 | 1970 | 3500 |
| 2026-05-07 13:30 | 6.20 | 450 | 4420 (1960) | 8 (1957) | 789 | 65 | 113 | 174 | 212 | 482 | 886 | 1100 | 1970 | 3500 |
| 2026-05-07 12:30 | 6.21 | 452 | 4420 (1960) | 8 (1957) | 789 | 65 | 113 | 174 | 212 | 482 | 886 | 1100 | 1970 | 3500 |
| 2026-05-07 11:30 | 6.22 | 454 | 4420 (1960) | 8 (1957) | 789 | 65 | 113 | 174 | 212 | 482 | 886 | 1100 | 1970 | 3500 |
| 2026-05-07 10:30 | 6.25 | 461 | 4420 (1960) | 8 (1957) | 789 | 65 | 113 | 174 | 212 | 482 | 886 | 1100 | 1970 | 3500 |
| 2026-05-07 09:30 | 6.24 | 459 | 4420 (1960) | 8 (1957) | 789 | 65 | 113 | 174 | 212 | 482 | 886 | 1100 | 1970 | 3500 |
| 2026-05-07 08:30 | 6.24 | 459 | 4420 (1960) | 8 (1957) | 789 | 65 | 113 | 174 | 212 | 482 | 886 | 1100 | 1970 | 3500 |
| 2026-05-07 07:30 | 6.25 | 461 | 4420 (1960) | 8 (1957) | 789 | 65 | 113 | 174 | 212 | 482 | 886 | 1100 | 1970 | 3500 |
| 2026-05-07 06:30 | 6.26 | 463 | 4420 (1960) | 8 (1957) | 789 | 65 | 113 | 174 | 212 | 482 | 886 | 1100 | 1970 | 3500 |
| 2026-05-07 05:30 | 6.27 | 465 | 4420 (1960) | 8 (1957) | 789 | 65 | 113 | 174 | 212 | 482 | 886 | 1100 | 1970 | 3500 |
| 2026-05-07 04:30 | 6.27 | 465 | 4420 (1960) | 8 (1957) | 789 | 65 | 113 | 174 | 212 | 482 | 886 | 1100 | 1970 | 3500 |
| 2026-05-07 03:30 | 6.28 | 468 | 4420 (1960) | 8 (1957) | 789 | 65 | 113 | 174 | 212 | 482 | 886 | 1100 | 1970 | 3500 |
| 2026-05-07 02:30 | 6.29 | 470 | 4420 (1960) | 8 (1957) | 789 | 65 | 113 | 174 | 212 | 482 | 886 | 1100 | 1970 | 3500 |
| 2026-05-07 01:30 | 6.27 | 465 | 4420 (1960) | 8 (1957) | 789 | 65 | 113 | 174 | 212 | 482 | 886 | 1100 | 1970 | 3500 |
| 2026-05-07 00:30 | 6.28 | 468 | 4420 (1960) | 8 (1957) | 789 | 65 | 113 | 174 | 212 | 482 | 886 | 1100 | 1970 | 3500 |
| 2026-05-06 23:30 | 6.28 | 468 | 4420 (1960) | 8 (1957) | 789 | 65 | 113 | 174 | 212 | 482 | 886 | 1100 | 1970 | 3500 |
| 2026-05-06 22:30 | 6.29 | 470 | 3840 (2013) | 10 (1957) | 690 | 69 | 112 | 159 | 215 | 489 | 917 | 1030 | 1700 | 2210 |
| 2026-05-06 21:30 | 6.32 | 476 | 3840 (2013) | 10 (1957) | 690 | 69 | 112 | 159 | 215 | 489 | 917 | 1030 | 1700 | 2210 |
| 2026-05-06 20:30 | 6.32 | 476 | 3840 (2013) | 10 (1957) | 690 | 69 | 112 | 159 | 215 | 489 | 917 | 1030 | 1700 | 2210 |
| 2026-05-06 19:30 | 6.33 | 479 | 3840 (2013) | 10 (1957) | 690 | 69 | 112 | 159 | 215 | 489 | 917 | 1030 | 1700 | 2210 |
| 2026-05-06 18:30 | 6.34 | 481 | 3840 (2013) | 10 (1957) | 690 | 69 | 112 | 159 | 215 | 489 | 917 | 1030 | 1700 | 2210 |
| 2026-05-06 17:30 | 6.34 | 481 | 3840 (2013) | 10 (1957) | 690 | 69 | 112 | 159 | 215 | 489 | 917 | 1030 | 1700 | 2210 |
| 2026-05-06 16:30 | 6.35 | 483 | 3840 (2013) | 10 (1957) | 690 | 69 | 112 | 159 | 215 | 489 | 917 | 1030 | 1700 | 2210 |
| 2026-05-06 15:30 | 6.36 | 485 | 3840 (2013) | 10 (1957) | 690 | 69 | 112 | 159 | 215 | 489 | 917 | 1030 | 1700 | 2210 |
| 2026-05-06 14:30 | 6.36 | 485 | 3840 (2013) | 10 (1957) | 690 | 69 | 112 | 159 | 215 | 489 | 917 | 1030 | 1700 | 2210 |
| 2026-05-06 13:30 | 6.37 | 487 | 3840 (2013) | 10 (1957) | 690 | 69 | 112 | 159 | 215 | 489 | 917 | 1030 | 1700 | 2210 |
| 2026-05-06 12:30 | 6.39 | 492 | 3840 (2013) | 10 (1957) | 690 | 69 | 112 | 159 | 215 | 489 | 917 | 1030 | 1700 | 2210 |
| 2026-05-06 11:30 | 6.38 | 490 | 3840 (2013) | 10 (1957) | 690 | 69 | 112 | 159 | 215 | 489 | 917 | 1030 | 1700 | 2210 |
| 2026-05-06 10:30 | 6.40 | 494 | 3840 (2013) | 10 (1957) | 690 | 69 | 112 | 159 | 215 | 489 | 917 | 1030 | 1700 | 2210 |
| 2026-05-06 09:30 | 6.38 | 490 | 3840 (2013) | 10 (1957) | 690 | 69 | 112 | 159 | 215 | 489 | 917 | 1030 | 1700 | 2210 |
| 2026-05-06 08:30 | 6.40 | 494 | 3840 (2013) | 10 (1957) | 690 | 69 | 112 | 159 | 215 | 489 | 917 | 1030 | 1700 | 2210 |
| 2026-05-06 07:30 | 6.41 | 496 | 3840 (2013) | 10 (1957) | 690 | 69 | 112 | 159 | 215 | 489 | 917 | 1030 | 1700 | 2210 |
| 2026-05-06 06:30 | 6.45 | 505 | 3840 (2013) | 10 (1957) | 690 | 69 | 112 | 159 | 215 | 489 | 917 | 1030 | 1700 | 2210 |
| 2026-05-06 05:30 | 6.45 | 505 | 3840 (2013) | 10 (1957) | 690 | 69 | 112 | 159 | 215 | 489 | 917 | 1030 | 1700 | 2210 |
| 2026-05-06 04:30 | 6.45 | 505 | 3840 (2013) | 10 (1957) | 690 | 69 | 112 | 159 | 215 | 489 | 917 | 1030 | 1700 | 2210 |
| 2026-05-06 03:30 | 6.42 | 499 | 3840 (2013) | 10 (1957) | 690 | 69 | 112 | 159 | 215 | 489 | 917 | 1030 | 1700 | 2210 |
| 2026-05-06 02:30 | 6.44 | 503 | 3840 (2013) | 10 (1957) | 690 | 69 | 112 | 159 | 215 | 489 | 917 | 1030 | 1700 | 2210 |
| 2026-05-06 01:30 | 6.44 | 503 | 3840 (2013) | 10 (1957) | 690 | 69 | 112 | 159 | 215 | 489 | 917 | 1030 | 1700 | 2210 |
| 2026-05-06 00:30 | 6.44 | 503 | 3840 (2013) | 10 (1957) | 690 | 69 | 112 | 159 | 215 | 489 | 917 | 1030 | 1700 | 2210 |
| 2026-05-05 23:30 | 6.45 | 505 | 3840 (2013) | 10 (1957) | 690 | 69 | 112 | 159 | 215 | 489 | 917 | 1030 | 1700 | 2210 |
| 2026-05-05 22:30 | 6.50 | 517 | 4030 (2013) | 12 (1957) | 746 | 57 | 116 | 161 | 236 | 453 | 938 | 1030 | 1840 | 2790 |
| 2026-05-05 21:30 | 6.49 | 514 | 4030 (2013) | 12 (1957) | 746 | 57 | 116 | 161 | 236 | 453 | 938 | 1030 | 1840 | 2790 |
| 2026-05-05 20:30 | 6.49 | 514 | 4030 (2013) | 12 (1957) | 746 | 57 | 116 | 161 | 236 | 453 | 938 | 1030 | 1840 | 2790 |
| 2026-05-05 19:30 | 6.51 | 519 | 4030 (2013) | 12 (1957) | 746 | 57 | 116 | 161 | 236 | 453 | 938 | 1030 | 1840 | 2790 |
| 2026-05-05 18:30 | 6.51 | 519 | 4030 (2013) | 12 (1957) | 746 | 57 | 116 | 161 | 236 | 453 | 938 | 1030 | 1840 | 2790 |
| 2026-05-05 17:30 | 6.51 | 519 | 4030 (2013) | 12 (1957) | 746 | 57 | 116 | 161 | 236 | 453 | 938 | 1030 | 1840 | 2790 |
| 2026-05-05 16:30 | 6.52 | 521 | 4030 (2013) | 12 (1957) | 746 | 57 | 116 | 161 | 236 | 453 | 938 | 1030 | 1840 | 2790 |
| 2026-05-05 15:30 | 6.54 | 526 | 4030 (2013) | 12 (1957) | 746 | 57 | 116 | 161 | 236 | 453 | 938 | 1030 | 1840 | 2790 |
| 2026-05-05 14:30 | 6.54 | 526 | 4030 (2013) | 12 (1957) | 746 | 57 | 116 | 161 | 236 | 453 | 938 | 1030 | 1840 | 2790 |
| 2026-05-05 13:30 | 6.56 | 531 | 4030 (2013) | 12 (1957) | 746 | 57 | 116 | 161 | 236 | 453 | 938 | 1030 | 1840 | 2790 |
| 2026-05-05 12:30 | 6.56 | 531 | 4030 (2013) | 12 (1957) | 746 | 57 | 116 | 161 | 236 | 453 | 938 | 1030 | 1840 | 2790 |
| 2026-05-05 11:30 | 6.54 | 526 | 4030 (2013) | 12 (1957) | 746 | 57 | 116 | 161 | 236 | 453 | 938 | 1030 | 1840 | 2790 |
| 2026-05-05 10:30 | 6.55 | 528 | 4030 (2013) | 12 (1957) | 746 | 57 | 116 | 161 | 236 | 453 | 938 | 1030 | 1840 | 2790 |
| 2026-05-05 09:30 | 6.58 | 535 | 4030 (2013) | 12 (1957) | 746 | 57 | 116 | 161 | 236 | 453 | 938 | 1030 | 1840 | 2790 |
| 2026-05-05 08:30 | 6.56 | 531 | 4030 (2013) | 12 (1957) | 746 | 57 | 116 | 161 | 236 | 453 | 938 | 1030 | 1840 | 2790 |
| 2026-05-05 07:30 | 6.57 | 533 | 4030 (2013) | 12 (1957) | 746 | 57 | 116 | 161 | 236 | 453 | 938 | 1030 | 1840 | 2790 |
| 2026-05-05 06:30 | 6.59 | 537 | 4030 (2013) | 12 (1957) | 746 | 57 | 116 | 161 | 236 | 453 | 938 | 1030 | 1840 | 2790 |
| 2026-05-05 05:15 | 6.58 | 535 | 4030 (2013) | 12 (1957) | 746 | 57 | 116 | 161 | 236 | 453 | 938 | 1030 | 1840 | 2790 |
| 2026-05-05 04:15 | 6.55 | 528 | 4030 (2013) | 12 (1957) | 746 | 57 | 116 | 161 | 236 | 453 | 938 | 1030 | 1840 | 2790 |
| 2026-05-05 03:30 | 6.65 | 552 | 4030 (2013) | 12 (1957) | 746 | 57 | 116 | 161 | 236 | 453 | 938 | 1030 | 1840 | 2790 |
| 2026-05-05 02:30 | 6.65 | 552 | 4030 (2013) | 12 (1957) | 746 | 57 | 116 | 161 | 236 | 453 | 938 | 1030 | 1840 | 2790 |
| 2026-05-05 01:30 | 6.67 | 556 | 4030 (2013) | 12 (1957) | 746 | 57 | 116 | 161 | 236 | 453 | 938 | 1030 | 1840 | 2790 |
| 2026-05-05 00:30 | 6.66 | 554 | 4030 (2013) | 12 (1957) | 746 | 57 | 116 | 161 | 236 | 453 | 938 | 1030 | 1840 | 2790 |
| 2026-05-04 23:30 | 6.67 | 556 | 4030 (2013) | 12 (1957) | 746 | 57 | 116 | 161 | 236 | 453 | 938 | 1030 | 1840 | 2790 |
| 2026-05-04 22:30 | 6.65 | 552 | 4680 (1993) | 15 (1957) | 791 | 65 | 118 | 155 | 247 | 474 | 971 | 1170 | 1800 | 2950 |
| 2026-05-04 21:30 | 6.68 | 559 | 4680 (1993) | 15 (1957) | 791 | 65 | 118 | 155 | 247 | 474 | 971 | 1170 | 1800 | 2950 |
| 2026-05-04 20:30 | 6.68 | 559 | 4680 (1993) | 15 (1957) | 791 | 65 | 118 | 155 | 247 | 474 | 971 | 1170 | 1800 | 2950 |
| 2026-05-04 19:30 | 6.68 | 559 | 4680 (1993) | 15 (1957) | 791 | 65 | 118 | 155 | 247 | 474 | 971 | 1170 | 1800 | 2950 |
| 2026-05-04 18:30 | 6.69 | 561 | 4680 (1993) | 15 (1957) | 791 | 65 | 118 | 155 | 247 | 474 | 971 | 1170 | 1800 | 2950 |
| 2026-05-04 17:30 | 6.69 | 561 | 4680 (1993) | 15 (1957) | 791 | 65 | 118 | 155 | 247 | 474 | 971 | 1170 | 1800 | 2950 |
| 2026-05-04 16:30 | 6.69 | 561 | 4680 (1993) | 15 (1957) | 791 | 65 | 118 | 155 | 247 | 474 | 971 | 1170 | 1800 | 2950 |
| 2026-05-04 15:30 | 6.71 | 566 | 4680 (1993) | 15 (1957) | 791 | 65 | 118 | 155 | 247 | 474 | 971 | 1170 | 1800 | 2950 |
| 2026-05-04 14:30 | 6.71 | 566 | 4680 (1993) | 15 (1957) | 791 | 65 | 118 | 155 | 247 | 474 | 971 | 1170 | 1800 | 2950 |
| 2026-05-04 13:30 | 6.72 | 568 | 4680 (1993) | 15 (1957) | 791 | 65 | 118 | 155 | 247 | 474 | 971 | 1170 | 1800 | 2950 |
| 2026-05-04 12:30 | 6.71 | 566 | 4680 (1993) | 15 (1957) | 791 | 65 | 118 | 155 | 247 | 474 | 971 | 1170 | 1800 | 2950 |
| 2026-05-04 11:30 | 6.73 | 570 | 4680 (1993) | 15 (1957) | 791 | 65 | 118 | 155 | 247 | 474 | 971 | 1170 | 1800 | 2950 |
| 2026-05-04 10:30 | 6.72 | 568 | 4680 (1993) | 15 (1957) | 791 | 65 | 118 | 155 | 247 | 474 | 971 | 1170 | 1800 | 2950 |
| 2026-05-04 09:30 | 6.74 | 573 | 4680 (1993) | 15 (1957) | 791 | 65 | 118 | 155 | 247 | 474 | 971 | 1170 | 1800 | 2950 |
| 2026-05-04 08:30 | 6.74 | 573 | 4680 (1993) | 15 (1957) | 791 | 65 | 118 | 155 | 247 | 474 | 971 | 1170 | 1800 | 2950 |
| 2026-05-04 07:30 | 6.74 | 573 | 4680 (1993) | 15 (1957) | 791 | 65 | 118 | 155 | 247 | 474 | 971 | 1170 | 1800 | 2950 |
| 2026-05-04 06:30 | 6.75 | 575 | 4680 (1993) | 15 (1957) | 791 | 65 | 118 | 155 | 247 | 474 | 971 | 1170 | 1800 | 2950 |
| 2026-05-04 05:30 | 6.75 | 575 | 4680 (1993) | 15 (1957) | 791 | 65 | 118 | 155 | 247 | 474 | 971 | 1170 | 1800 | 2950 |
| 2026-05-04 04:30 | 6.77 | 580 | 4680 (1993) | 15 (1957) | 791 | 65 | 118 | 155 | 247 | 474 | 971 | 1170 | 1800 | 2950 |
| 2026-05-04 03:30 | 6.76 | 578 | 4680 (1993) | 15 (1957) | 791 | 65 | 118 | 155 | 247 | 474 | 971 | 1170 | 1800 | 2950 |
| 2026-05-04 02:30 | 6.81 | 590 | 4680 (1993) | 15 (1957) | 791 | 65 | 118 | 155 | 247 | 474 | 971 | 1170 | 1800 | 2950 |
| 2026-05-04 01:30 | 6.82 | 592 | 4680 (1993) | 15 (1957) | 791 | 65 | 118 | 155 | 247 | 474 | 971 | 1170 | 1800 | 2950 |
| 2026-05-04 00:30 | 6.81 | 590 | 4680 (1993) | 15 (1957) | 791 | 65 | 118 | 155 | 247 | 474 | 971 | 1170 | 1800 | 2950 |
| 2026-05-03 23:30 | 6.82 | 592 | 4680 (1993) | 15 (1957) | 791 | 65 | 118 | 155 | 247 | 474 | 971 | 1170 | 1800 | 2950 |
| 2026-05-03 22:30 | 6.82 | 592 | 7360 (1993) | 19 (1956) | 873 | 64 | 121 | 176 | 259 | 466 | 1010 | 1140 | 1940 | 3700 |
| 2026-05-03 21:30 | 6.82 | 592 | 7360 (1993) | 19 (1956) | 873 | 64 | 121 | 176 | 259 | 466 | 1010 | 1140 | 1940 | 3700 |
| 2026-05-03 20:30 | 6.83 | 594 | 7360 (1993) | 19 (1956) | 873 | 64 | 121 | 176 | 259 | 466 | 1010 | 1140 | 1940 | 3700 |
| 2026-05-03 19:30 | 6.84 | 597 | 7360 (1993) | 19 (1956) | 873 | 64 | 121 | 176 | 259 | 466 | 1010 | 1140 | 1940 | 3700 |
| 2026-05-03 18:30 | 6.85 | 599 | 7360 (1993) | 19 (1956) | 873 | 64 | 121 | 176 | 259 | 466 | 1010 | 1140 | 1940 | 3700 |
| 2026-05-03 17:30 | 6.86 | 602 | 7360 (1993) | 19 (1956) | 873 | 64 | 121 | 176 | 259 | 466 | 1010 | 1140 | 1940 | 3700 |
| 2026-05-03 16:30 | 6.86 | 602 | 7360 (1993) | 19 (1956) | 873 | 64 | 121 | 176 | 259 | 466 | 1010 | 1140 | 1940 | 3700 |
| 2026-05-03 15:30 | 6.86 | 602 | 7360 (1993) | 19 (1956) | 873 | 64 | 121 | 176 | 259 | 466 | 1010 | 1140 | 1940 | 3700 |
| 2026-05-03 14:30 | 6.88 | 607 | 7360 (1993) | 19 (1956) | 873 | 64 | 121 | 176 | 259 | 466 | 1010 | 1140 | 1940 | 3700 |
| 2026-05-03 13:30 | 6.87 | 604 | 7360 (1993) | 19 (1956) | 873 | 64 | 121 | 176 | 259 | 466 | 1010 | 1140 | 1940 | 3700 |
| 2026-05-03 12:30 | 6.88 | 607 | 7360 (1993) | 19 (1956) | 873 | 64 | 121 | 176 | 259 | 466 | 1010 | 1140 | 1940 | 3700 |
| 2026-05-03 11:30 | 6.89 | 609 | 7360 (1993) | 19 (1956) | 873 | 64 | 121 | 176 | 259 | 466 | 1010 | 1140 | 1940 | 3700 |
| 2026-05-03 10:30 | 6.89 | 609 | 7360 (1993) | 19 (1956) | 873 | 64 | 121 | 176 | 259 | 466 | 1010 | 1140 | 1940 | 3700 |
| 2026-05-03 09:30 | 6.91 | 614 | 7360 (1993) | 19 (1956) | 873 | 64 | 121 | 176 | 259 | 466 | 1010 | 1140 | 1940 | 3700 |
| 2026-05-03 08:30 | 6.92 | 616 | 7360 (1993) | 19 (1956) | 873 | 64 | 121 | 176 | 259 | 466 | 1010 | 1140 | 1940 | 3700 |
| 2026-05-03 07:30 | 6.92 | 616 | 7360 (1993) | 19 (1956) | 873 | 64 | 121 | 176 | 259 | 466 | 1010 | 1140 | 1940 | 3700 |
| 2026-05-03 06:30 | 6.92 | 616 | 7360 (1993) | 19 (1956) | 873 | 64 | 121 | 176 | 259 | 466 | 1010 | 1140 | 1940 | 3700 |
| 2026-05-03 05:30 | 6.95 | 624 | 7360 (1993) | 19 (1956) | 873 | 64 | 121 | 176 | 259 | 466 | 1010 | 1140 | 1940 | 3700 |
| 2026-05-03 04:30 | 6.96 | 626 | 7360 (1993) | 19 (1956) | 873 | 64 | 121 | 176 | 259 | 466 | 1010 | 1140 | 1940 | 3700 |
| 2026-05-03 03:30 | 6.96 | 626 | 7360 (1993) | 19 (1956) | 873 | 64 | 121 | 176 | 259 | 466 | 1010 | 1140 | 1940 | 3700 |
| 2026-05-03 02:30 | 6.97 | 629 | 7360 (1993) | 19 (1956) | 873 | 64 | 121 | 176 | 259 | 466 | 1010 | 1140 | 1940 | 3700 |
| 2026-05-03 01:30 | 6.99 | 634 | 7360 (1993) | 19 (1956) | 873 | 64 | 121 | 176 | 259 | 466 | 1010 | 1140 | 1940 | 3700 |
| 2026-05-03 00:30 | 7.02 | 641 | 7360 (1993) | 19 (1956) | 873 | 64 | 121 | 176 | 259 | 466 | 1010 | 1140 | 1940 | 3700 |
| 2026-05-02 23:30 | 7.02 | 641 | 7360 (1993) | 19 (1956) | 873 | 64 | 121 | 176 | 259 | 466 | 1010 | 1140 | 1940 | 3700 |
A total of 176 rows are displayed for years 1946 through 2025.